Hysham, Montana
Current Conditions -  °F | °C
As of 7:53 PM on Saturday 25 Oct 2014 (Local Time) from KMLS Reporting Station
Clear Clear  
Wind Chill: 63°   Ceiling: Unl
Heat Index: 63°   Visibility: 10mi
Dew Point: 36°   Wind: 12mph
Humidity: 37%   Direction: 140°SE
Pressure: 29.73"   Gusts: 16mph
Location:  46.29°N, 107.23°W
Report Text: KMLS 260153Z AUTO 14010G14KT 10SM CLR 17/02 A2973 RMK AO2 SLP068 T01720022
Loading
Personal Weather Stations






























Interactive Weather Map
Tropical Storm Tracking
New forecast layout! Learn more

10-Day Weather Forecast

Advertisements
Track Severe Weather on mobile